Time;durP1;ratioP1;P1;durP2;ratioP2;P2;SDS_P1;SDS_P2;PMS_P1;PMS_P2;Temp;Humidity;BMP_temperature;BMP_pressure;BME280_temperature;BME280_humidity;BME280_pressure;Samples;Min_cycle;Max_cycle;Signal;HPM_P1;HPM_P2
2023/05/09 00:02:09;;;;;;;9.43;7.72;;;;;;;16.52;73.99;100508.16;5053383;28;20053;-61
2023/05/09 00:04:37;;;;;;;9.13;8.23;;;;;;;16.50;73.63;100507.69;5053271;28;20490;-60
2023/05/09 00:07:06;;;;;;;8.43;7.40;;;;;;;16.45;73.56;100502.31;5053293;28;20056;-59
2023/05/09 00:09:33;;;;;;;9.27;7.80;;;;;;;16.44;73.89;100495.91;5052528;28;20056;-59
2023/05/09 00:12:01;;;;;;;11.00;8.10;;;;;;;16.38;73.69;100496.50;5053276;28;20057;-60
2023/05/09 00:14:28;;;;;;;8.93;8.02;;;;;;;16.35;73.71;100488.75;5053020;28;20057;-60
2023/05/09 00:16:58;;;;;;;9.43;7.97;;;;;;;16.32;73.80;100489.47;5052993;28;20049;-59
2023/05/09 00:19:25;;;;;;;9.23;8.32;;;;;;;16.23;74.10;100489.56;5052400;28;20049;-60
2023/05/09 00:21:52;;;;;;;9.82;8.82;;;;;;;16.19;74.16;100481.03;5052599;28;20053;-59
2023/05/09 00:24:25;;;;;;;9.45;8.48;;;;;;;16.17;74.63;100482.56;5053206;28;20057;-59
2023/05/09 00:26:55;;;;;;;9.57;8.52;;;;;;;16.10;74.10;100468.28;5053203;28;20075;-58
2023/05/09 00:29:22;;;;;;;;;;;;;;;16.01;75.01;100466.41;5053061;28;20057;-59
2023/05/09 00:31:49;;;;;;;10.68;7.78;;;;;;;15.97;74.58;100473.09;5052361;28;20396;-58
2023/05/09 00:34:16;;;;;;;9.40;8.40;;;;;;;15.90;74.58;100470.88;5052726;28;20064;-60
2023/05/09 00:36:44;;;;;;;11.10;8.45;;;;;;;15.87;75.18;100467.94;5052975;28;20053;-60
2023/05/09 00:39:11;;;;;;;9.10;8.20;;;;;;;15.81;75.05;100464.53;5052819;28;20057;-60
2023/05/09 00:41:42;;;;;;;8.93;7.97;;;;;;;15.78;74.22;100459.63;5052816;28;20053;-59
2023/05/09 00:44:09;;;;;;;9.38;8.38;;;;;;;15.73;75.36;100457.88;5052602;28;20053;-60
2023/05/09 00:46:36;;;;;;;10.95;8.50;;;;;;;15.69;75.27;100465.31;5052626;28;20052;-60
2023/05/09 00:49:04;;;;;;;9.52;8.60;;;;;;;15.66;74.53;100453.97;5052680;28;20048;-59
2023/05/09 00:51:40;;;;;;;10.32;8.27;;;;;;;15.58;75.21;100444.47;5052799;28;20053;-60
2023/05/09 00:54:07;;;;;;;9.10;7.60;;;;;;;15.56;75.88;100439.22;5052379;28;20057;-60
2023/05/09 00:56:34;;;;;;;10.32;8.48;;;;;;;15.52;75.51;100434.66;5052308;28;20056;-59
2023/05/09 00:59:03;;;;;;;9.75;8.32;;;;;;;15.45;75.87;100435.22;5052522;28;20417;-59
2023/05/09 01:01:30;;;;;;;11.02;8.48;;;;;;;15.41;75.75;100429.50;5052853;28;20060;-59
2023/05/09 01:03:58;;;;;;;8.75;7.85;;;;;;;15.36;76.24;100426.91;5052491;28;20053;-58
2023/05/09 01:06:32;;;;;;;10.23;8.70;;;;;;;15.31;75.26;100424.31;5052594;28;20053;-59
2023/05/09 01:09:06;;;;;;;9.57;7.85;;;;;;;15.27;75.04;100419.75;5052455;28;20379;-58
2023/05/09 01:11:39;;;;;;;9.73;8.27;;;;;;;15.20;75.43;100417.50;5052524;28;20497;-59
2023/05/09 01:14:15;;;;;;;9.85;7.70;;;;;;;15.11;75.11;100416.78;5052072;28;20482;-59
2023/05/09 01:16:52;;;;;;;8.43;7.50;;;;;;;15.00;76.24;100414.41;5052174;28;20045;-59
2023/05/09 01:19:40;;;;;;;10.48;9.38;;;;;;;14.95;76.70;100409.03;5052368;28;20049;-59
2023/05/09 01:22:10;;;;;;;14.68;11.52;;;;;;;14.95;76.23;100409.03;5052564;28;20052;-59
2023/05/09 01:24:56;;;;;;;12.32;11.02;;;;;;;14.93;77.06;100408.56;5052262;28;20060;-58
2023/05/09 01:27:43;;;;;;;10.27;9.02;;;;;;;14.92;76.94;100406.91;5052466;28;20387;-59
2023/05/09 01:30:16;;;;;;;10.95;8.85;;;;;;;14.90;76.86;100397.22;5052372;28;20059;-59
2023/05/09 01:32:46;;;;;;;10.82;9.18;;;;;;;14.87;76.73;100395.09;5054926;28;20049;-59
2023/05/09 01:35:18;;;;;;;13.27;9.90;;;;;;;14.83;77.53;100386.56;5056024;28;20057;-58
2023/05/09 01:37:50;;;;;;;13.90;9.85;;;;;;;14.86;77.31;100387.84;5053372;28;20052;-59
2023/05/09 01:40:20;;;;;;;10.90;9.57;;;;;;;14.86;77.52;100393.44;5041312;28;20053;-59
2023/05/09 01:42:51;;;;;;;9.98;9.02;;;;;;;14.84;77.62;100388.19;5035313;28;20058;-59
2023/05/09 01:45:22;;;;;;;11.07;9.38;;;;;;;14.87;76.60;100395.91;5035717;28;20062;-58
2023/05/09 01:47:50;;;;;;;13.30;11.23;;;;;;;14.85;76.80;100389.03;5035760;28;20057;-59
2023/05/09 01:50:19;;;;;;;15.38;11.82;;;;;;;14.84;77.62;100382.56;5035918;28;20057;-59
2023/05/09 01:52:48;;;;;;;10.77;9.70;;;;;;;14.85;77.77;100378.63;5035372;28;20087;-59
2023/05/09 01:55:18;;;;;;;13.43;10.52;;;;;;;14.82;77.08;100380.13;5035185;28;20061;-59
2023/05/09 01:57:47;;;;;;;13.43;11.32;;;;;;;14.81;78.30;100381.28;5035603;28;20071;-60
2023/05/09 02:00:15;;;;;;;12.57;10.55;;;;;;;14.77;77.47;100373.91;5035402;28;20057;-59
2023/05/09 02:02:44;;;;;;;13.13;11.48;;;;;;;14.76;77.41;100375.06;5042155;28;20053;-59
2023/05/09 02:05:14;;;;;;;11.93;10.70;;;;;;;14.76;78.45;100363.84;5055080;28;20421;-59
2023/05/09 02:07:42;;;;;;;15.38;12.73;;;;;;;14.71;77.21;100372.50;5055118;28;20048;-59
2023/05/09 02:10:10;;;;;;;15.55;13.95;;;;;;;14.75;78.03;100368.66;5055077;28;20478;-59
2023/05/09 02:12:37;;;;;;;15.32;13.50;;;;;;;14.79;78.27;100371.59;5055080;28;20057;-59
2023/05/09 02:15:06;;;;;;;16.08;13.63;;;;;;;14.85;78.42;100359.00;5054644;28;20052;-60
2023/05/09 02:17:33;;;;;;;16.63;14.33;;;;;;;14.89;79.20;100368.34;5055386;28;20053;-59
2023/05/09 02:20:07;;;;;;;14.10;12.60;;;;;;;14.89;78.60;100362.75;5054927;28;20060;-60
2023/05/09 02:22:34;;;;;;;13.20;11.85;;;;;;;14.90;79.00;100361.56;5054949;28;20501;-59
2023/05/09 02:25:03;;;;;;;13.23;11.25;;;;;;;14.94;78.70;100362.50;5054905;28;20063;-59
2023/05/09 02:27:32;;;;;;;14.98;12.00;;;;;;;14.95;77.53;100361.34;5054686;28;20136;-59
2023/05/09 02:30:06;;;;;;;14.25;12.35;;;;;;;14.96;78.67;100367.78;5055143;28;20064;-59
2023/05/09 02:32:39;;;;;;;18.23;14.55;;;;;;;15.00;78.66;100363.94;5054764;28;20530;-59
2023/05/09 02:35:10;;;;;;;16.13;14.32;;;;;;;15.07;77.57;100362.53;5054558;28;20061;-59
2023/05/09 02:37:38;;;;;;;16.55;14.82;;;;;;;15.14;78.21;100362.78;5054298;28;20064;-59
2023/05/09 02:40:07;;;;;;;16.85;15.23;;;;;;;15.14;78.38;100358.00;5054413;28;20387;-59
2023/05/09 02:42:38;;;;;;;18.42;16.52;;;;;;;15.20;78.59;100359.41;5054528;28;20059;-59
2023/05/09 02:45:07;;;;;;;17.77;15.40;;;;;;;15.22;78.71;100356.25;5053990;28;20049;-59
2023/05/09 02:47:37;;;;;;;18.30;16.40;;;;;;;15.22;78.36;100350.63;5055097;28;20057;-59
2023/05/09 02:50:05;;;;;;;;;;;;;;;15.20;78.92;100352.97;5054496;28;20059;-60
2023/05/09 02:52:34;;;;;;;18.90;16.90;;;;;;;15.26;78.04;100357.19;5054778;28;20294;-59
2023/05/09 02:55:02;;;;;;;18.75;16.63;;;;;;;15.29;78.23;100352.88;5054243;28;20497;-59
2023/05/09 02:57:29;;;;;;;17.95;16.15;;;;;;;15.34;77.75;100356.25;5054298;28;20064;-59
2023/05/09 02:59:57;;;;;;;16.95;15.05;;;;;;;15.38;78.01;100362.00;5054247;28;20064;-59
2023/05/09 03:02:24;;;;;;;16.77;13.82;;;;;;;15.41;78.31;100362.13;5054289;28;20056;-59
2023/05/09 03:04:52;;;;;;;17.42;15.63;;;;;;;15.36;77.84;100359.53;5054109;28;20060;-59
2023/05/09 03:07:19;;;;;;;22.17;15.25;;;;;;;15.37;77.38;100349.13;5054300;28;20394;-60
2023/05/09 03:09:48;;;;;;;17.10;15.32;;;;;;;15.38;77.34;100345.16;5053616;28;20060;-60
2023/05/09 03:12:15;;;;;;;18.27;16.30;;;;;;;15.37;76.91;100344.34;5053965;28;20056;-59
2023/05/09 03:14:42;;;;;;;16.92;15.00;;;;;;;15.37;77.13;100347.16;5053612;28;20060;-58
2023/05/09 03:17:09;;;;;;;18.90;16.90;;;;;;;15.39;77.63;100342.00;5054006;28;20383;-58
2023/05/09 03:19:37;;;;;;;17.35;15.32;;;;;;;15.43;77.19;100339.31;5053848;28;20055;-58
2023/05/09 03:22:04;;;;;;;17.65;15.52;;;;;;;15.50;77.37;100344.34;5053953;28;20048;-59
2023/05/09 03:24:31;;;;;;;17.65;14.77;;;;;;;15.49;76.80;100345.50;5053717;28;20063;-59
2023/05/09 03:27:00;;;;;;;19.83;17.27;;;;;;;15.47;76.54;100340.25;5053273;28;20513;-59
2023/05/09 03:29:27;;;;;;;16.38;14.68;;;;;;;15.50;76.82;100341.56;5053548;28;20470;-58
2023/05/09 03:31:54;;;;;;;16.17;14.10;;;;;;;15.54;76.60;100340.50;5053812;28;20064;-59
2023/05/09 03:34:22;;;;;;;17.35;15.52;;;;;;;15.55;76.70;100328.06;5053246;28;20053;-59
2023/05/09 03:36:49;;;;;;;16.88;15.18;;;;;;;15.58;76.38;100326.53;5053419;28;20062;-59
2023/05/09 03:39:16;;;;;;;21.02;17.27;;;;;;;15.58;76.47;100329.34;5052996;28;20052;-59
2023/05/09 03:41:44;;;;;;;17.75;15.60;;;;;;;15.65;77.29;100324.00;5053380;28;20052;-59
2023/05/09 03:44:12;;;;;;;18.52;16.42;;;;;;;15.70;76.59;100315.31;5052758;28;20064;-58
2023/05/09 03:46:39;;;;;;;18.08;15.85;;;;;;;15.79;76.76;100310.44;5053111;28;20049;-58
2023/05/09 03:49:07;;;;;;;19.90;16.88;;;;;;;15.85;76.96;100310.16;5052881;28;20056;-59
2023/05/09 03:51:34;;;;;;;23.67;17.50;;;;;;;15.91;76.63;100308.75;5053236;28;20064;-58
2023/05/09 03:54:01;;;;;;;19.08;16.63;;;;;;;15.91;75.94;100309.56;5052558;28;20071;-59
2023/05/09 03:56:29;;;;;;;20.02;17.20;;;;;;;15.96;76.17;100308.53;5052503;28;20056;-59
2023/05/09 03:58:56;;;;;;;17.73;15.65;;;;;;;16.04;76.09;100315.97;5053176;28;20474;-59
2023/05/09 04:01:27;;;;;;;18.63;16.63;;;;;;;16.09;75.78;100306.50;5053136;28;20053;-59
2023/05/09 04:03:56;;;;;;;18.08;16.17;;;;;;;16.13;75.97;100313.84;5053126;28;20049;-59
2023/05/09 04:06:23;;;;;;;18.10;16.17;;;;;;;16.20;75.75;100316.88;5052589;28;20063;-59
2023/05/09 04:08:54;;;;;;;18.13;16.33;;;;;;;16.28;74.93;100314.28;5053110;28;20052;-59
2023/05/09 04:11:24;;;;;;;16.90;15.15;;;;;;;16.33;74.92;100312.00;5052993;28;20060;-59
2023/05/09 04:13:52;;;;;;;18.73;16.73;;;;;;;16.41;74.79;100313.03;5052825;28;20114;-59
2023/05/09 04:16:24;;;;;;;15.38;13.35;;;;;;;16.50;74.28;100310.06;5052654;28;20061;-60
2023/05/09 04:18:51;;;;;;;15.98;14.15;;;;;;;16.49;74.15;100311.25;5052927;28;20072;-59
2023/05/09 04:21:18;;;;;;;14.35;12.85;;;;;;;16.54;74.13;100306.19;5052929;28;20060;-59
2023/05/09 04:23:49;;;;;;;15.75;14.20;;;;;;;16.50;74.28;100310.06;5052841;28;20064;-59
2023/05/09 04:26:17;;;;;;;18.63;16.73;;;;;;;16.53;74.06;100310.19;5052549;28;20052;-60
2023/05/09 04:28:44;;;;;;;19.83;17.73;;;;;;;16.55;74.44;100307.03;5052670;28;20056;-58
2023/05/09 04:31:13;;;;;;;18.30;16.20;;;;;;;16.62;73.63;100308.00;5052430;28;20045;-59
2023/05/09 04:33:42;;;;;;;18.98;16.95;;;;;;;16.67;74.08;100304.13;5052190;28;20064;-60
2023/05/09 04:36:09;;;;;;;17.87;15.87;;;;;;;16.71;73.86;100292.97;5052670;28;20061;-58
2023/05/09 04:38:43;;;;;;;18.63;16.50;;;;;;;16.80;73.01;100293.63;5052448;28;20471;-59
2023/05/09 04:41:10;;;;;;;19.75;16.05;;;;;;;16.89;73.33;100285.84;5052735;28;20398;-59
2023/05/09 04:43:37;;;;;;;19.35;17.35;;;;;;;16.94;73.29;100293.22;5052139;28;20414;-59
2023/05/09 04:46:04;;;;;;;17.13;15.32;;;;;;;17.01;73.04;100277.34;5052590;28;20059;-59
2023/05/09 04:48:32;;;;;;;19.05;17.10;;;;;;;17.09;72.96;100269.88;5052344;28;20517;-59
2023/05/09 04:51:04;;;;;;;19.27;16.10;;;;;;;17.14;73.08;100272.44;5052490;28;20048;-59
2023/05/09 04:53:31;;;;;;;17.73;15.35;;;;;;;17.18;72.36;100275.34;5052168;28;20057;-59
2023/05/09 04:56:01;;;;;;;19.67;17.58;;;;;;;17.21;72.59;100266.97;5052206;28;20497;-59
2023/05/09 04:58:29;;;;;;;18.90;16.83;;;;;;;17.32;72.66;100267.22;5051995;28;20061;-59
2023/05/09 05:01:00;;;;;;;19.50;17.05;;;;;;;17.41;72.58;100264.25;5052620;28;20064;-59
2023/05/09 05:03:27;;;;;;;19.15;16.63;;;;;;;17.49;71.93;100268.84;5052300;28;20052;-59
2023/05/09 05:05:54;;;;;;;18.50;16.55;;;;;;;17.55;71.96;100266.56;5052211;28;20064;-59
2023/05/09 05:08:23;;;;;;;20.48;18.27;;;;;;;17.59;71.86;100271.06;5056069;28;20067;-58
2023/05/09 05:10:50;;;;;;;16.37;14.77;;;;;;;17.66;71.94;100262.00;5055895;28;20052;-61
2023/05/09 05:13:18;;;;;;;19.95;16.70;;;;;;;17.72;71.75;100259.69;5055947;28;20059;-59
2023/05/09 05:15:45;;;;;;;20.17;18.05;;;;;;;17.81;71.20;100266.75;5055795;28;20064;-58
2023/05/09 05:18:16;;;;;;;19.15;17.13;;;;;;;17.92;70.92;100255.75;5056044;28;20048;-59
2023/05/09 05:20:43;;;;;;;19.60;17.50;;;;;;;18.00;70.84;100246.25;5055780;28;20053;-59
2023/05/09 05:23:11;;;;;;;19.73;17.00;;;;;;;18.13;69.68;100243.31;5055600;28;20596;-59
2023/05/09 05:25:39;;;;;;;22.85;17.58;;;;;;;18.20;70.08;100249.88;5055542;28;20478;-59
2023/05/09 05:28:07;;;;;;;17.50;15.55;;;;;;;18.26;69.74;100244.75;5055756;28;20505;-59
2023/05/09 05:30:34;;;;;;;19.73;15.95;;;;;;;18.35;70.10;100238.88;5054675;28;20049;-59
2023/05/09 05:33:01;;;;;;;17.60;14.48;;;;;;;18.42;69.94;100239.03;5055125;28;20053;-59
2023/05/09 05:35:28;;;;;;;19.65;17.63;;;;;;;18.52;68.90;100234.78;5055168;28;20049;-59
2023/05/09 05:37:56;;;;;;;18.67;16.88;;;;;;;18.59;69.25;100227.28;5055630;28;20056;-59
2023/05/09 05:40:23;;;;;;;18.17;15.48;;;;;;;18.72;68.20;100235.56;5055099;28;20064;-59
2023/05/09 05:42:51;;;;;;;18.00;15.27;;;;;;;18.77;67.66;100230.44;5055490;28;20060;-59
2023/05/09 05:45:19;;;;;;;17.67;15.93;;;;;;;18.86;68.55;100218.91;5055414;28;20053;-58
2023/05/09 05:47:46;;;;;;;18.27;16.15;;;;;;;18.92;67.63;100225.88;5055642;28;20049;-59
2023/05/09 05:50:13;;;;;;;16.90;15.02;;;;;;;18.99;67.62;100217.50;5054908;28;20056;-60
2023/05/09 05:52:41;;;;;;;15.50;13.75;;;;;;;19.02;67.02;100228.06;5055110;28;20049;-60
2023/05/09 05:55:09;;;;;;;16.88;15.18;;;;;;;19.11;67.10;100219.31;5054935;28;20498;-59
2023/05/09 05:57:38;;;;;;;16.98;15.18;;;;;;;19.06;67.43;100217.63;5055348;28;20057;-59
2023/05/09 06:00:09;;;;;;;16.25;14.55;;;;;;;19.14;67.24;100218.56;5055377;28;20052;-59
2023/05/09 06:02:37;;;;;;;14.27;12.88;;;;;;;19.20;67.21;100219.06;5054902;28;20063;-60
2023/05/09 06:05:05;;;;;;;18.20;15.35;;;;;;;19.23;66.16;100223.94;5054779;28;20053;-60
2023/05/09 06:07:33;;;;;;;16.58;14.77;;;;;;;19.28;65.98;100217.97;5055242;28;20061;-61
2023/05/09 06:10:00;;;;;;;16.83;15.20;;;;;;;19.28;65.79;100212.31;5054897;28;20480;-60
2023/05/09 06:12:27;;;;;;;21.55;15.68;;;;;;;19.26;66.95;100211.91;5054514;28;20064;-60
2023/05/09 06:14:54;;;;;;;22.05;15.98;;;;;;;19.31;66.72;100205.91;5054618;28;20049;-61
2023/05/09 06:17:23;;;;;;;18.42;15.88;;;;;;;19.33;66.50;100214.81;5055247;28;20499;-60
2023/05/09 06:19:50;;;;;;;16.90;14.18;;;;;;;19.45;65.86;100208.13;5053714;28;20056;-59
2023/05/09 06:22:18;;;;;;;17.15;15.07;;;;;;;19.58;65.86;100209.53;5055168;28;20056;-59
2023/05/09 06:24:45;;;;;;;17.98;15.15;;;;;;;19.56;66.13;100205.47;5054682;28;20402;-59
2023/05/09 06:27:12;;;;;;;15.98;14.27;;;;;;;19.62;65.97;100210.38;5055064;28;20049;-59
2023/05/09 06:29:40;;;;;;;15.32;13.82;;;;;;;19.71;65.21;100201.66;5054888;28;20056;-59
2023/05/09 06:32:13;;;;;;;15.68;13.30;;;;;;;19.80;64.83;100205.03;5054967;28;20414;-59
2023/05/09 06:34:41;;;;;;;16.92;14.52;;;;;;;19.80;65.00;100198.53;5054535;28;20505;-59
2023/05/09 06:37:09;;;;;;;15.10;13.13;;;;;;;19.87;64.13;100202.28;5054361;28;20053;-59
2023/05/09 06:39:36;;;;;;;14.75;13.13;;;;;;;19.74;64.68;100189.59;5054979;28;20057;-60
2023/05/09 06:42:03;;;;;;;15.20;13.10;;;;;;;19.69;64.69;100189.88;5054765;28;20096;-60
2023/05/09 06:44:31;;;;;;;15.43;13.85;;;;;;;19.68;64.99;100185.44;5054826;28;20049;-60
2023/05/09 06:46:58;;;;;;;15.52;13.57;;;;;;;19.60;65.51;100178.06;5054633;28;20064;-60
2023/05/09 06:49:25;;;;;;;15.32;13.75;;;;;;;19.67;65.47;100186.63;5054738;28;20403;-60
2023/05/09 06:51:54;;;;;;;17.08;14.35;;;;;;;19.53;64.73;100178.78;5054438;28;20048;-60
2023/05/09 06:54:21;;;;;;;15.57;13.90;;;;;;;19.69;65.57;100172.94;5055290;28;20055;-59
2023/05/09 06:56:49;;;;;;;16.10;12.88;;;;;;;19.85;64.76;100175.59;5054542;28;20053;-59
2023/05/09 06:59:47;;;;;;;15.93;13.88;;;;;;;20.08;64.53;100169.81;5053929;28;20049;-59
2023/05/09 07:02:14;;;;;;;14.90;13.40;;;;;;;20.39;63.10;100167.69;5054241;28;20394;-59
2023/05/09 07:04:42;;;;;;;13.50;12.13;;;;;;;20.81;62.42;100161.66;5054328;28;20057;-59
2023/05/09 07:07:10;;;;;;;14.70;13.10;;;;;;;21.27;60.64;100147.00;5054154;28;20075;-59
2023/05/09 07:09:37;;;;;;;14.70;12.95;;;;;;;21.57;59.25;100153.69;5053938;28;20064;-59
2023/05/09 07:12:05;;;;;;;13.95;12.55;;;;;;;21.84;58.37;100149.34;5053947;28;20135;-59
2023/05/09 07:14:33;;;;;;;13.77;12.00;;;;;;;21.90;57.71;100144.06;5053340;28;20060;-60
2023/05/09 07:17:11;;;;;;;12.82;11.55;;;;;;;22.25;57.20;100154.75;5054246;28;20404;-60
2023/05/09 07:19:38;;;;;;;13.18;11.80;;;;;;;21.75;57.42;100150.91;5052841;28;20067;-60
2023/05/09 07:22:05;;;;;;;13.48;12.07;;;;;;;21.43;57.80;100146.72;5053711;28;20045;-60
2023/05/09 07:24:34;;;;;;;12.70;11.32;;;;;;;21.12;59.23;100142.44;5053738;28;20053;-60
2023/05/09 07:27:02;;;;;;;13.57;12.27;;;;;;;21.02;59.64;100138.34;5053613;28;20057;-60
2023/05/09 07:29:30;;;;;;;12.93;11.40;;;;;;;20.95;59.55;100132.63;5053266;28;20063;-59
2023/05/09 07:31:57;;;;;;;12.27;11.07;;;;;;;21.02;59.83;100129.03;5053756;28;20475;-59
2023/05/09 07:34:24;;;;;;;13.10;11.18;;;;;;;21.01;59.76;100128.22;5053563;28;20100;-59
2023/05/09 07:36:51;;;;;;;12.73;11.05;;;;;;;21.09;59.48;100131.94;5053552;28;20060;-59
2023/05/09 07:39:19;;;;;;;11.60;10.50;;;;;;;21.16;59.47;100120.63;5053044;28;20064;-59
2023/05/09 07:41:47;;;;;;;12.10;10.90;;;;;;;21.33;59.01;100115.47;5053465;28;20053;-59
2023/05/09 07:44:14;;;;;;;11.77;10.57;;;;;;;21.68;58.52;100112.00;5054277;28;20063;-60
2023/05/09 07:46:42;;;;;;;11.60;10.45;;;;;;;21.62;58.59;100110.78;5053285;28;20060;-59
2023/05/09 07:49:09;;;;;;;11.93;10.70;;;;;;;21.74;58.11;100107.59;5053726;28;20053;-59
2023/05/09 07:51:36;;;;;;;12.70;11.38;;;;;;;21.79;57.85;100110.00;5053369;28;20068;-59
2023/05/09 07:54:04;;;;;;;11.82;9.57;;;;;;;21.78;57.77;100104.78;5053108;28;20049;-59
2023/05/09 07:56:31;;;;;;;10.85;9.82;;;;;;;21.89;57.60;100106.41;5053761;28;20064;-58
2023/05/09 07:59:17;;;;;;;11.32;10.23;;;;;;;21.86;57.92;100106.41;5053235;28;20379;-58
2023/05/09 08:01:44;;;;;;;12.30;10.90;;;;;;;21.58;58.02;100098.59;5052327;28;20045;-58
2023/05/09 08:04:12;;;;;;;12.32;11.13;;;;;;;21.73;57.56;100088.94;5052818;28;20053;-58
2023/05/09 08:06:39;;;;;;;12.93;11.63;;;;;;;21.35;58.29;100099.69;5053116;28;20049;-58
2023/05/09 08:09:06;;;;;;;13.15;11.80;;;;;;;21.31;58.02;100095.22;5053088;28;20053;-58
2023/05/09 08:11:35;;;;;;;12.43;11.23;;;;;;;21.49;57.89;100082.78;5052866;28;20048;-58
2023/05/09 08:14:02;;;;;;;12.02;10.82;;;;;;;21.49;57.76;100082.78;5053033;28;20132;-59
2023/05/09 08:16:31;;;;;;;13.60;12.05;;;;;;;21.52;57.60;100092.50;5052495;28;20057;-59
2023/05/09 08:18:58;;;;;;;14.00;12.38;;;;;;;21.42;57.69;100088.44;5052871;28;20426;-59
2023/05/09 08:21:25;;;;;;;12.80;11.50;;;;;;;21.63;57.13;100082.03;5052919;28;20052;-60
2023/05/09 08:23:52;;;;;;;12.80;11.60;;;;;;;21.75;56.90;100069.50;5052413;28;20099;-59
2023/05/09 08:26:21;;;;;;;11.60;10.38;;;;;;;21.89;56.72;100063.88;5052643;28;20052;-59
2023/05/09 08:28:49;;;;;;;13.10;11.80;;;;;;;21.62;56.80;100068.25;5052534;28;20048;-58
2023/05/09 08:31:16;;;;;;;12.90;11.60;;;;;;;21.88;56.99;100070.78;5052363;28;20053;-58
2023/05/09 08:33:45;;;;;;;12.30;11.02;;;;;;;22.24;56.29;100062.34;5052579;28;20052;-59
2023/05/09 08:36:12;;;;;;;12.00;10.70;;;;;;;22.20;55.67;100064.34;5052635;28;20063;-60
2023/05/09 08:38:40;;;;;;;11.65;10.55;;;;;;;22.10;55.87;100065.13;5053543;28;20383;-59
2023/05/09 08:41:07;;;;;;;11.93;10.68;;;;;;;22.05;55.65;100057.84;5053693;28;20498;-59
2023/05/09 08:43:35;;;;;;;12.10;10.90;;;;;;;21.85;56.57;100054.53;5059422;28;20053;-59
2023/05/09 08:46:06;;;;;;;11.60;10.40;;;;;;;21.85;56.78;100057.38;5059246;28;20056;-59
2023/05/09 08:48:36;;;;;;;11.55;10.35;;;;;;;21.60;56.85;100053.69;5059373;28;20061;-59
2023/05/09 08:51:06;;;;;;;11.52;10.32;;;;;;;21.64;57.07;100054.50;5059326;28;20048;-59
2023/05/09 08:53:34;;;;;;;11.45;10.30;;;;;;;21.70;57.03;100052.91;5059021;28;20052;-59
2023/05/09 08:56:03;;;;;;;12.27;11.07;;;;;;;21.80;56.55;100049.28;5058961;28;20056;-60
2023/05/09 08:58:31;;;;;;;11.65;10.65;;;;;;;21.92;56.83;100050.09;5059440;28;20056;-60
2023/05/09 09:01:00;;;;;;;11.27;10.18;;;;;;;21.77;56.48;100046.44;5058787;28;20489;-59
2023/05/09 09:03:27;;;;;;;10.97;9.87;;;;;;;21.80;56.82;100046.44;5058455;28;20513;-59
2023/05/09 09:05:56;;;;;;;12.48;10.57;;;;;;;21.76;56.71;100051.28;5058908;28;20487;-59
2023/05/09 09:08:26;;;;;;;10.98;9.95;;;;;;;21.82;56.62;100037.56;5059016;28;20057;-59
2023/05/09 09:10:54;;;;;;;11.07;9.98;;;;;;;21.85;56.49;100042.41;5058889;28;20056;-59
2023/05/09 09:13:22;;;;;;;11.00;9.90;;;;;;;22.14;55.73;100033.94;5059243;28;20499;-59
2023/05/09 09:15:52;;;;;;;11.93;10.23;;;;;;;22.33;54.66;100027.09;5058925;28;20052;-59
2023/05/09 09:18:23;;;;;;;10.57;9.57;;;;;;;23.02;53.19;100025.78;5058517;28;20048;-59
2023/05/09 09:20:56;;;;;;;10.75;9.68;;;;;;;23.54;51.70;100011.75;5058947;28;20056;-60
2023/05/09 09:23:26;;;;;;;10.48;9.38;;;;;;;24.03;49.94;100018.38;5059452;28;20067;-59
2023/05/09 09:25:58;;;;;;;10.68;9.68;;;;;;;24.07;49.72;100018.34;5059083;28;20490;-59
2023/05/09 09:28:25;;;;;;;9.25;8.35;;;;;;;24.30;49.78;100017.75;5059532;28;20063;-59
2023/05/09 09:30:52;;;;;;;9.52;8.27;;;;;;;24.33;48.54;100014.06;5058623;28;20486;-59
2023/05/09 09:33:21;;;;;;;10.02;8.27;;;;;;;24.43;48.54;100020.88;5062128;28;20512;-59
2023/05/09 09:35:49;;;;;;;9.10;8.20;;;;;;;24.41;48.71;100006.28;5058422;28;20049;-58
2023/05/09 09:38:24;;;;;;;8.40;7.53;;;;;;;24.27;48.20;100001.50;5058907;28;20053;-58
2023/05/09 09:40:55;;;;;;;8.63;7.75;;;;;;;24.57;47.35;99995.16;5058493;28;20049;-59
2023/05/09 09:43:30;;;;;;;7.95;7.18;;;;;;;25.11;46.10;99995.38;5058582;28;20052;-59
2023/05/09 09:46:06;;;;;;;8.32;7.10;;;;;;;25.54;43.68;99984.66;5059057;28;20049;-58
2023/05/09 09:48:35;;;;;;;6.90;6.18;;;;;;;26.32;43.18;99980.56;5060337;28;20072;-59
2023/05/09 09:51:08;;;;;;;6.88;6.13;;;;;;;27.61;41.04;99973.56;5058969;28;20049;-59
2023/05/09 09:53:39;;;;;;;6.95;6.25;;;;;;;27.63;39.85;99971.84;5056795;28;20049;-59
2023/05/09 09:56:08;;;;;;;6.22;5.63;;;;;;;26.71;41.52;99978.25;5055492;28;20136;-60
2023/05/09 09:58:36;;;;;;;6.63;5.90;;;;;;;26.64;41.75;99972.69;5056260;28;20049;-59
2023/05/09 10:01:06;;;;;;;6.80;6.05;;;;;;;27.18;40.83;99960.19;5055376;28;20053;-60
2023/05/09 10:03:38;;;;;;;6.03;5.43;;;;;;;28.17;39.50;99956.28;5055408;28;20486;-59
2023/05/09 10:06:09;;;;;;;5.80;5.28;;;;;;;29.04;37.44;99954.75;5055288;28;20064;-59
2023/05/09 10:08:36;;;;;;;6.32;5.30;;;;;;;28.77;36.97;99953.06;5055371;28;20049;-59
2023/05/09 10:11:04;;;;;;;5.88;5.28;;;;;;;28.08;37.33;99953.25;5055642;28;20044;-59
2023/05/09 10:13:36;;;;;;;5.38;4.88;;;;;;;28.11;37.87;99952.34;5055985;28;20041;-59
2023/05/09 10:16:04;;;;;;;5.90;4.55;;;;;;;27.55;39.51;99947.53;5054982;28;20053;-59
2023/05/09 10:18:32;;;;;;;5.03;4.50;;;;;;;26.79;41.07;99947.50;5054725;28;20068;-59
2023/05/09 10:21:02;;;;;;;4.77;4.37;;;;;;;26.74;40.75;99954.53;5055466;28;20501;-59
2023/05/09 10:23:31;;;;;;;5.10;4.20;;;;;;;27.27;39.20;99940.41;5055053;28;20479;-61
2023/05/09 10:26:04;;;;;;;4.55;4.13;;;;;;;26.97;39.83;99927.94;5055543;28;20049;-58
2023/05/09 10:28:35;;;;;;;4.18;3.78;;;;;;;27.14;40.09;99925.94;5054957;28;20060;-59
2023/05/09 10:31:09;;;;;;;5.28;4.00;;;;;;;26.98;38.93;99928.75;5055080;28;20060;-58
2023/05/09 10:33:42;;;;;;;5.30;4.05;;;;;;;27.44;38.48;99922.03;5054542;28;20052;-59
2023/05/09 10:36:10;;;;;;;4.18;3.58;;;;;;;28.14;36.69;99914.22;5054374;28;20053;-59
2023/05/09 10:38:38;;;;;;;5.10;3.40;;;;;;;29.00;35.90;99906.13;5054618;28;20061;-59
2023/05/09 10:41:06;;;;;;;4.82;3.70;;;;;;;30.54;33.19;99903.94;5054749;28;20079;-58
2023/05/09 10:43:35;;;;;;;4.05;3.60;;;;;;;30.68;32.25;99894.00;5054266;28;20049;-59
2023/05/09 10:46:02;;;;;;;;;;;;;;;30.52;32.18;99897.06;5055467;28;20055;-59
2023/05/09 10:48:30;;;;;;;5.43;3.70;;;;;;;29.47;34.34;99896.09;5054485;28;20369;-59
2023/05/09 10:50:58;;;;;;;4.88;3.63;;;;;;;28.60;35.57;99895.00;5054264;28;20052;-59
2023/05/09 10:53:41;;;;;;;4.47;4.07;;;;;;;27.72;37.20;99897.66;5054235;28;20513;-59
2023/05/09 10:56:08;;;;;;;4.15;3.72;;;;;;;27.03;38.69;99902.50;5054387;28;20049;-59
2023/05/09 10:58:39;;;;;;;4.40;4.00;;;;;;;26.79;39.24;99891.16;5054307;28;20060;-59
2023/05/09 11:01:07;;;;;;;3.97;3.67;;;;;;;26.60;39.84;99889.91;5053967;28;20053;-59
2023/05/09 11:03:53;;;;;;;4.55;3.95;;;;;;;26.10;41.09;99885.97;5053807;28;20414;-59
2023/05/09 11:06:43;;;;;;;7.20;3.78;;;;;;;26.02;40.65;99880.81;5054081;28;20053;-59
2023/05/09 11:09:27;;;;;;;6.15;3.80;;;;;;;25.84;41.03;99881.09;5054306;28;20053;-59
2023/05/09 11:11:56;;;;;;;4.43;3.67;;;;;;;26.03;40.93;99873.84;5054432;28;20057;-59
2023/05/09 11:14:39;;;;;;;5.28;4.15;;;;;;;26.35;38.75;99872.44;5053489;28;20387;-58
2023/05/09 11:17:08;;;;;;;5.57;4.18;;;;;;;26.18;39.57;99869.47;5054356;28;20053;-59
2023/05/09 11:19:58;;;;;;;3.92;3.53;;;;;;;26.75;39.92;99849.63;5054298;28;20049;-59
2023/05/09 11:22:27;;;;;;;4.25;3.85;;;;;;;27.05;39.25;99857.16;5054267;28;20053;-59
2023/05/09 11:25:01;;;;;;;4.00;3.42;;;;;;;27.19;38.63;99853.13;5053932;28;20053;-59
2023/05/09 11:27:39;;;;;;;4.50;4.10;;;;;;;27.68;37.74;99844.63;5053448;28;20066;-59